Argenta, Illinois
Current Conditions -  °F | °C
As of 6:04 PM on Sunday 25 Jan 2015 (Local Time) from KDEC Reporting Station
Overcast Overcast  
Wind Chill: 20°   Ceiling: 1100
Heat Index: 33°   Visibility: 10mi
Dew Point: 32°   Wind: 24mph
Humidity: 96%   Direction: 20°NNE
Pressure: 29.83"   Gusts: 32mph
Location:  39.98°N, 88.82°W
Report Text: KDEC 260004Z 02021G28KT 10SM OVC011 01/00 A2983 RMK AO2 PK WND 01028/2357 T00060000
Loading
Personal Weather Stations






























Interactive Weather Map New forecast layout! Learn more

10-Day Weather Forecast

Advertisements
Track Severe Weather on mobile